sensor_id;sensor_type;location;lat;lon;timestamp;P1;P2;P0
70436;PMS5003;57877;39.750;-104.894;2022-12-07T00:01:38;0;0;
70436;PMS5003;57877;39.750;-104.894;2022-12-07T00:04:04;0;0;
70436;PMS5003;57877;39.750;-104.894;2022-12-07T00:06:30;0;0;
70436;PMS5003;57877;39.750;-104.894;2022-12-07T00:08:55;0;0;
70436;PMS5003;57877;39.750;-104.894;2022-12-07T00:11:21;0;0;
70436;PMS5003;57877;39.750;-104.894;2022-12-07T00:13:46;0;0;
70436;PMS5003;57877;39.750;-104.894;2022-12-07T00:16:13;0;0;
70436;PMS5003;57877;39.750;-104.894;2022-12-07T00:18:38;0;0;
70436;PMS5003;57877;39.750;-104.894;2022-12-07T00:21:04;0;0;
70436;PMS5003;57877;39.750;-104.894;2022-12-07T00:23:30;0;0;
70436;PMS5003;57877;39.750;-104.894;2022-12-07T00:25:56;0;0;
70436;PMS5003;57877;39.750;-104.894;2022-12-07T00:28:22;0;0;
70436;PMS5003;57877;39.750;-104.894;2022-12-07T00:30:48;0;0;
70436;PMS5003;57877;39.750;-104.894;2022-12-07T00:33:14;0;0;
70436;PMS5003;57877;39.750;-104.894;2022-12-07T00:35:40;0;0;
70436;PMS5003;57877;39.750;-104.894;2022-12-07T00:38:06;2;1;
70436;PMS5003;57877;39.750;-104.894;2022-12-07T00:40:32;0;0;
70436;PMS5003;57877;39.750;-104.894;2022-12-07T00:42:58;0;0;
70436;PMS5003;57877;39.750;-104.894;2022-12-07T00:45:24;0;0;
70436;PMS5003;57877;39.750;-104.894;2022-12-07T00:47:50;0;0;
70436;PMS5003;57877;39.750;-104.894;2022-12-07T00:50:15;0;0;
70436;PMS5003;57877;39.750;-104.894;2022-12-07T00:52:41;0;0;
70436;PMS5003;57877;39.750;-104.894;2022-12-07T00:55:07;0;0;
70436;PMS5003;57877;39.750;-104.894;2022-12-07T00:57:33;0;0;
70436;PMS5003;57877;39.750;-104.894;2022-12-07T00:59:59;0;0;
70436;PMS5003;57877;39.750;-104.894;2022-12-07T01:02:25;0;0;
70436;PMS5003;57877;39.750;-104.894;2022-12-07T01:04:51;0;0;
70436;PMS5003;57877;39.750;-104.894;2022-12-07T01:07:17;0;0;
70436;PMS5003;57877;39.750;-104.894;2022-12-07T01:09:43;0;0;
70436;PMS5003;57877;39.750;-104.894;2022-12-07T01:12:09;0;0;
70436;PMS5003;57877;39.750;-104.894;2022-12-07T01:14:35;0;0;
70436;PMS5003;57877;39.750;-104.894;2022-12-07T01:17:01;0;0;
70436;PMS5003;57877;39.750;-104.894;2022-12-07T01:19:27;0;0;
70436;PMS5003;57877;39.750;-104.894;2022-12-07T01:21:53;0;0;
70436;PMS5003;57877;39.750;-104.894;2022-12-07T01:24:19;0;0;
70436;PMS5003;57877;39.750;-104.894;2022-12-07T01:26:45;0;0;
70436;PMS5003;57877;39.750;-104.894;2022-12-07T01:29:10;0;0;
70436;PMS5003;57877;39.750;-104.894;2022-12-07T01:31:35;1;0;
70436;PMS5003;57877;39.750;-104.894;2022-12-07T01:34:01;0;0;
70436;PMS5003;57877;39.750;-104.894;2022-12-07T01:36:27;0;0;
70436;PMS5003;57877;39.750;-104.894;2022-12-07T01:38:54;0;0;
70436;PMS5003;57877;39.750;-104.894;2022-12-07T01:41:19;0;0;
70436;PMS5003;57877;39.750;-104.894;2022-12-07T01:46:11;0;0;
70436;PMS5003;57877;39.750;-104.894;2022-12-07T01:48:37;1;1;
70436;PMS5003;57877;39.750;-104.894;2022-12-07T01:51:04;0;0;
70436;PMS5003;57877;39.750;-104.894;2022-12-07T01:53:29;0;0;
70436;PMS5003;57877;39.750;-104.894;2022-12-07T01:55:55;0;0;
70436;PMS5003;57877;39.750;-104.894;2022-12-07T01:58:21;1;0;
70436;PMS5003;57877;39.750;-104.894;2022-12-07T02:00:47;0;0;
70436;PMS5003;57877;39.750;-104.894;2022-12-07T02:03:14;0;0;
70436;PMS5003;57877;39.750;-104.894;2022-12-07T02:05:38;0;0;
70436;PMS5003;57877;39.750;-104.894;2022-12-07T02:08:04;0;0;
70436;PMS5003;57877;39.750;-104.894;2022-12-07T02:10:31;0;0;
70436;PMS5003;57877;39.750;-104.894;2022-12-07T02:12:57;0;0;
70436;PMS5003;57877;39.750;-104.894;2022-12-07T02:15:23;0;0;
70436;PMS5003;57877;39.750;-104.894;2022-12-07T02:17:51;0;0;
70436;PMS5003;57877;39.750;-104.894;2022-12-07T02:25:07;0;0;
70436;PMS5003;57877;39.750;-104.894;2022-12-07T02:27:37;0;0;
70436;PMS5003;57877;39.750;-104.894;2022-12-07T02:29:58;1;1;
70436;PMS5003;57877;39.750;-104.894;2022-12-07T02:32:25;0;0;
70436;PMS5003;57877;39.750;-104.894;2022-12-07T02:34:51;4;3;
70436;PMS5003;57877;39.750;-104.894;2022-12-07T02:37:19;3;3;
70436;PMS5003;57877;39.750;-104.894;2022-12-07T02:39:42;1;1;
70436;PMS5003;57877;39.750;-104.894;2022-12-07T02:44:31;0;0;
70436;PMS5003;57877;39.750;-104.894;2022-12-07T02:46:57;2;2;
70436;PMS5003;57877;39.750;-104.894;2022-12-07T02:49:22;0;0;
70436;PMS5003;57877;39.750;-104.894;2022-12-07T02:51:46;2;1;
70436;PMS5003;57877;39.750;-104.894;2022-12-07T02:54:13;0;0;
70436;PMS5003;57877;39.750;-104.894;2022-12-07T02:56:39;2;2;
70436;PMS5003;57877;39.750;-104.894;2022-12-07T02:59:13;2;0;
70436;PMS5003;57877;39.750;-104.894;2022-12-07T03:01:30;1;1;
70436;PMS5003;57877;39.750;-104.894;2022-12-07T03:03:54;2;2;
70436;PMS5003;57877;39.750;-104.894;2022-12-07T03:06:19;1;0;
70436;PMS5003;57877;39.750;-104.894;2022-12-07T03:08:45;3;2;
70436;PMS5003;57877;39.750;-104.894;2022-12-07T03:11:09;3;3;
70436;PMS5003;57877;39.750;-104.894;2022-12-07T03:13:34;4;4;
70436;PMS5003;57877;39.750;-104.894;2022-12-07T03:16:00;3;3;
70436;PMS5003;57877;39.750;-104.894;2022-12-07T03:18:25;4;4;
70436;PMS5003;57877;39.750;-104.894;2022-12-07T03:20:51;5;5;
70436;PMS5003;57877;39.750;-104.894;2022-12-07T03:23:17;5;4;
70436;PMS5003;57877;39.750;-104.894;2022-12-07T03:25:43;7;7;
70436;PMS5003;57877;39.750;-104.894;2022-12-07T03:28:06;4;4;
70436;PMS5003;57877;39.750;-104.894;2022-12-07T03:30:32;5;4;
70436;PMS5003;57877;39.750;-104.894;2022-12-07T03:32:58;5;4;
70436;PMS5003;57877;39.750;-104.894;2022-12-07T03:35:22;3;3;
70436;PMS5003;57877;39.750;-104.894;2022-12-07T03:37:49;3;3;
70436;PMS5003;57877;39.750;-104.894;2022-12-07T03:40:15;4;4;
70436;PMS5003;57877;39.750;-104.894;2022-12-07T03:42:40;5;5;
70436;PMS5003;57877;39.750;-104.894;2022-12-07T03:45:05;7;6;
70436;PMS5003;57877;39.750;-104.894;2022-12-07T03:47:31;8;7;
70436;PMS5003;57877;39.750;-104.894;2022-12-07T03:49:57;8;8;
70436;PMS5003;57877;39.750;-104.894;2022-12-07T03:52:22;10;10;
70436;PMS5003;57877;39.750;-104.894;2022-12-07T03:54:47;8;7;
70436;PMS5003;57877;39.750;-104.894;2022-12-07T03:57:11;10;9;
70436;PMS5003;57877;39.750;-104.894;2022-12-07T03:59:36;7;6;
70436;PMS5003;57877;39.750;-104.894;2022-12-07T04:02:03;15;13;
70436;PMS5003;57877;39.750;-104.894;2022-12-07T04:04:28;13;13;
70436;PMS5003;57877;39.750;-104.894;2022-12-07T04:06:54;15;14;
70436;PMS5003;57877;39.750;-104.894;2022-12-07T04:09:20;16;13;
70436;PMS5003;57877;39.750;-104.894;2022-12-07T04:11:45;8;7;
70436;PMS5003;57877;39.750;-104.894;2022-12-07T04:14:10;8;8;
70436;PMS5003;57877;39.750;-104.894;2022-12-07T04:16:35;7;7;
70436;PMS5003;57877;39.750;-104.894;2022-12-07T04:19:00;8;8;
70436;PMS5003;57877;39.750;-104.894;2022-12-07T04:21:25;6;6;
70436;PMS5003;57877;39.750;-104.894;2022-12-07T04:23:50;7;7;
70436;PMS5003;57877;39.750;-104.894;2022-12-07T04:26:15;6;6;
70436;PMS5003;57877;39.750;-104.894;2022-12-07T04:28:40;6;5;
70436;PMS5003;57877;39.750;-104.894;2022-12-07T04:31:06;7;7;
70436;PMS5003;57877;39.750;-104.894;2022-12-07T04:33:31;5;5;
70436;PMS5003;57877;39.750;-104.894;2022-12-07T04:35:56;7;7;
70436;PMS5003;57877;39.750;-104.894;2022-12-07T04:38:21;5;5;
70436;PMS5003;57877;39.750;-104.894;2022-12-07T04:40:46;7;6;
70436;PMS5003;57877;39.750;-104.894;2022-12-07T04:43:11;7;6;
70436;PMS5003;57877;39.750;-104.894;2022-12-07T04:45:36;5;5;
70436;PMS5003;57877;39.750;-104.894;2022-12-07T04:48:02;10;9;
70436;PMS5003;57877;39.750;-104.894;2022-12-07T04:50:26;16;12;
70436;PMS5003;57877;39.750;-104.894;2022-12-07T04:52:51;11;8;
70436;PMS5003;57877;39.750;-104.894;2022-12-07T04:55:16;25;22;
70436;PMS5003;57877;39.750;-104.894;2022-12-07T04:57:41;10;8;
70436;PMS5003;57877;39.750;-104.894;2022-12-07T05:00:07;7;7;
70436;PMS5003;57877;39.750;-104.894;2022-12-07T05:02:31;24;23;
70436;PMS5003;57877;39.750;-104.894;2022-12-07T05:04:57;27;26;
70436;PMS5003;57877;39.750;-104.894;2022-12-07T05:07:22;19;18;
70436;PMS5003;57877;39.750;-104.894;2022-12-07T05:09:47;9;8;
70436;PMS5003;57877;39.750;-104.894;2022-12-07T05:12:12;16;16;
70436;PMS5003;57877;39.750;-104.894;2022-12-07T05:14:37;7;7;
70436;PMS5003;57877;39.750;-104.894;2022-12-07T05:17:02;6;5;
70436;PMS5003;57877;39.750;-104.894;2022-12-07T05:19:27;5;4;
70436;PMS5003;57877;39.750;-104.894;2022-12-07T05:21:53;5;5;
70436;PMS5003;57877;39.750;-104.894;2022-12-07T05:24:17;4;4;
70436;PMS5003;57877;39.750;-104.894;2022-12-07T05:26:42;3;3;
70436;PMS5003;57877;39.750;-104.894;2022-12-07T05:29:07;7;7;
70436;PMS5003;57877;39.750;-104.894;2022-12-07T05:31:32;8;7;
70436;PMS5003;57877;39.750;-104.894;2022-12-07T05:33:57;4;4;
70436;PMS5003;57877;39.750;-104.894;2022-12-07T05:36:22;5;5;
70436;PMS5003;57877;39.750;-104.894;2022-12-07T05:38:47;5;5;
70436;PMS5003;57877;39.750;-104.894;2022-12-07T05:41:13;5;5;
70436;PMS5003;57877;39.750;-104.894;2022-12-07T05:43:37;5;5;
70436;PMS5003;57877;39.750;-104.894;2022-12-07T05:46:02;7;6;
70436;PMS5003;57877;39.750;-104.894;2022-12-07T05:48:27;7;7;
70436;PMS5003;57877;39.750;-104.894;2022-12-07T05:50:52;8;7;
70436;PMS5003;57877;39.750;-104.894;2022-12-07T05:53:17;10;10;
70436;PMS5003;57877;39.750;-104.894;2022-12-07T05:55:42;9;8;
70436;PMS5003;57877;39.750;-104.894;2022-12-07T05:58:08;6;6;
70436;PMS5003;57877;39.750;-104.894;2022-12-07T06:00:33;4;4;
70436;PMS5003;57877;39.750;-104.894;2022-12-07T06:02:58;5;5;
70436;PMS5003;57877;39.750;-104.894;2022-12-07T06:05:24;6;6;
70436;PMS5003;57877;39.750;-104.894;2022-12-07T06:07:49;4;4;
70436;PMS5003;57877;39.750;-104.894;2022-12-07T06:10:14;2;2;
70436;PMS5003;57877;39.750;-104.894;2022-12-07T06:12:39;3;3;
70436;PMS5003;57877;39.750;-104.894;2022-12-07T06:15:04;4;3;
70436;PMS5003;57877;39.750;-104.894;2022-12-07T06:17:29;3;3;
70436;PMS5003;57877;39.750;-104.894;2022-12-07T06:19:54;4;4;
70436;PMS5003;57877;39.750;-104.894;2022-12-07T06:22:19;2;2;
70436;PMS5003;57877;39.750;-104.894;2022-12-07T06:24:44;4;4;
70436;PMS5003;57877;39.750;-104.894;2022-12-07T06:27:10;8;8;
70436;PMS5003;57877;39.750;-104.894;2022-12-07T06:29:35;17;17;
70436;PMS5003;57877;39.750;-104.894;2022-12-07T06:32:00;8;7;
70436;PMS5003;57877;39.750;-104.894;2022-12-07T06:34:25;7;5;
70436;PMS5003;57877;39.750;-104.894;2022-12-07T06:36:50;3;2;
70436;PMS5003;57877;39.750;-104.894;2022-12-07T06:39:16;3;3;
70436;PMS5003;57877;39.750;-104.894;2022-12-07T06:41:42;3;3;
70436;PMS5003;57877;39.750;-104.894;2022-12-07T06:44:07;3;2;
70436;PMS5003;57877;39.750;-104.894;2022-12-07T06:46:32;0;0;
70436;PMS5003;57877;39.750;-104.894;2022-12-07T06:48:57;1;0;
70436;PMS5003;57877;39.750;-104.894;2022-12-07T06:51:22;1;0;
70436;PMS5003;57877;39.750;-104.894;2022-12-07T06:53:47;0;0;
70436;PMS5003;57877;39.750;-104.894;2022-12-07T06:56:12;2;1;
70436;PMS5003;57877;39.750;-104.894;2022-12-07T06:58:38;0;0;
70436;PMS5003;57877;39.750;-104.894;2022-12-07T07:01:02;2;2;
70436;PMS5003;57877;39.750;-104.894;2022-12-07T07:03:28;1;1;
70436;PMS5003;57877;39.750;-104.894;2022-12-07T07:05:52;2;2;
70436;PMS5003;57877;39.750;-104.894;2022-12-07T07:08:18;2;0;
70436;PMS5003;57877;39.750;-104.894;2022-12-07T07:10:43;0;0;
70436;PMS5003;57877;39.750;-104.894;2022-12-07T07:13:08;2;2;
70436;PMS5003;57877;39.750;-104.894;2022-12-07T07:15:33;1;1;
70436;PMS5003;57877;39.750;-104.894;2022-12-07T07:17:58;0;0;
70436;PMS5003;57877;39.750;-104.894;2022-12-07T07:20:23;2;2;
70436;PMS5003;57877;39.750;-104.894;2022-12-07T07:22:48;1;0;
70436;PMS5003;57877;39.750;-104.894;2022-12-07T07:25:13;3;3;
70436;PMS5003;57877;39.750;-104.894;2022-12-07T07:27:38;0;0;
70436;PMS5003;57877;39.750;-104.894;2022-12-07T07:30:04;2;1;
70436;PMS5003;57877;39.750;-104.894;2022-12-07T07:32:28;1;0;
70436;PMS5003;57877;39.750;-104.894;2022-12-07T07:34:53;2;2;
70436;PMS5003;57877;39.750;-104.894;2022-12-07T07:37:18;0;0;
70436;PMS5003;57877;39.750;-104.894;2022-12-07T07:39:43;0;0;
70436;PMS5003;57877;39.750;-104.894;2022-12-07T07:42:08;1;1;
70436;PMS5003;57877;39.750;-104.894;2022-12-07T07:44:33;0;0;
70436;PMS5003;57877;39.750;-104.894;2022-12-07T07:46:59;1;0;
70436;PMS5003;57877;39.750;-104.894;2022-12-07T07:49:23;1;1;
70436;PMS5003;57877;39.750;-104.894;2022-12-07T07:51:49;0;0;
70436;PMS5003;57877;39.750;-104.894;2022-12-07T07:54:14;0;0;
70436;PMS5003;57877;39.750;-104.894;2022-12-07T07:56:39;0;0;
70436;PMS5003;57877;39.750;-104.894;2022-12-07T07:59:04;0;0;
70436;PMS5003;57877;39.750;-104.894;2022-12-07T08:01:29;0;0;
70436;PMS5003;57877;39.750;-104.894;2022-12-07T08:03:54;0;0;
70436;PMS5003;57877;39.750;-104.894;2022-12-07T08:06:19;0;0;
70436;PMS5003;57877;39.750;-104.894;2022-12-07T08:08:44;0;0;
70436;PMS5003;57877;39.750;-104.894;2022-12-07T08:11:09;1;1;
70436;PMS5003;57877;39.750;-104.894;2022-12-07T08:13:34;0;0;
70436;PMS5003;57877;39.750;-104.894;2022-12-07T08:16:03;0;0;
70436;PMS5003;57877;39.750;-104.894;2022-12-07T08:18:24;1;1;
70436;PMS5003;57877;39.750;-104.894;2022-12-07T08:20:49;0;0;
70436;PMS5003;57877;39.750;-104.894;2022-12-07T08:23:14;0;0;
70436;PMS5003;57877;39.750;-104.894;2022-12-07T08:25:40;1;0;
70436;PMS5003;57877;39.750;-104.894;2022-12-07T08:28:05;0;0;
70436;PMS5003;57877;39.750;-104.894;2022-12-07T08:30:30;0;0;
70436;PMS5003;57877;39.750;-104.894;2022-12-07T08:32:55;0;0;
70436;PMS5003;57877;39.750;-104.894;2022-12-07T08:35:20;1;1;
70436;PMS5003;57877;39.750;-104.894;2022-12-07T08:37:45;0;0;
70436;PMS5003;57877;39.750;-104.894;2022-12-07T08:40:10;0;0;
70436;PMS5003;57877;39.750;-104.894;2022-12-07T08:42:35;0;0;
70436;PMS5003;57877;39.750;-104.894;2022-12-07T08:45:00;0;0;
70436;PMS5003;57877;39.750;-104.894;2022-12-07T08:47:25;0;0;
70436;PMS5003;57877;39.750;-104.894;2022-12-07T08:49:50;0;0;
70436;PMS5003;57877;39.750;-104.894;2022-12-07T08:52:15;1;1;
70436;PMS5003;57877;39.750;-104.894;2022-12-07T08:54:40;0;0;
70436;PMS5003;57877;39.750;-104.894;2022-12-07T08:57:06;0;0;
70436;PMS5003;57877;39.750;-104.894;2022-12-07T08:59:31;0;0;
70436;PMS5003;57877;39.750;-104.894;2022-12-07T09:01:56;2;1;
70436;PMS5003;57877;39.750;-104.894;2022-12-07T09:04:21;0;0;
70436;PMS5003;57877;39.750;-104.894;2022-12-07T09:06:46;0;0;
70436;PMS5003;57877;39.750;-104.894;2022-12-07T09:09:11;1;0;
70436;PMS5003;57877;39.750;-104.894;2022-12-07T09:11:36;0;0;
70436;PMS5003;57877;39.750;-104.894;2022-12-07T09:14:01;0;0;
70436;PMS5003;57877;39.750;-104.894;2022-12-07T09:16:26;0;0;
70436;PMS5003;57877;39.750;-104.894;2022-12-07T09:18:51;0;0;
70436;PMS5003;57877;39.750;-104.894;2022-12-07T09:21:17;0;0;
70436;PMS5003;57877;39.750;-104.894;2022-12-07T09:23:42;0;0;
70436;PMS5003;57877;39.750;-104.894;2022-12-07T09:26:07;0;0;
70436;PMS5003;57877;39.750;-104.894;2022-12-07T09:28:32;0;0;
70436;PMS5003;57877;39.750;-104.894;2022-12-07T09:30:57;0;0;
70436;PMS5003;57877;39.750;-104.894;2022-12-07T09:33:22;0;0;
70436;PMS5003;57877;39.750;-104.894;2022-12-07T09:35:48;0;0;
70436;PMS5003;57877;39.750;-104.894;2022-12-07T09:38:12;0;0;
70436;PMS5003;57877;39.750;-104.894;2022-12-07T09:40:38;0;0;
70436;PMS5003;57877;39.750;-104.894;2022-12-07T09:43:03;0;0;
70436;PMS5003;57877;39.750;-104.894;2022-12-07T09:45:29;0;0;
70436;PMS5003;57877;39.750;-104.894;2022-12-07T09:47:53;0;0;
70436;PMS5003;57877;39.750;-104.894;2022-12-07T09:50:20;0;0;
70436;PMS5003;57877;39.750;-104.894;2022-12-07T09:52:43;0;0;
70436;PMS5003;57877;39.750;-104.894;2022-12-07T09:55:09;0;0;
70436;PMS5003;57877;39.750;-104.894;2022-12-07T09:57:33;0;0;
70436;PMS5003;57877;39.750;-104.894;2022-12-07T09:59:59;0;0;
70436;PMS5003;57877;39.750;-104.894;2022-12-07T10:02:25;0;0;
70436;PMS5003;57877;39.750;-104.894;2022-12-07T10:04:49;0;0;
70436;PMS5003;57877;39.750;-104.894;2022-12-07T10:07:14;0;0;
70436;PMS5003;57877;39.750;-104.894;2022-12-07T10:09:39;0;0;
70436;PMS5003;57877;39.750;-104.894;2022-12-07T10:12:06;0;0;
70436;PMS5003;57877;39.750;-104.894;2022-12-07T10:14:30;1;0;
70436;PMS5003;57877;39.750;-104.894;2022-12-07T10:16:54;17;16;
70436;PMS5003;57877;39.750;-104.894;2022-12-07T10:19:22;2;2;
70436;PMS5003;57877;39.750;-104.894;2022-12-07T10:24:13;1;0;
70436;PMS5003;57877;39.750;-104.894;2022-12-07T10:26:35;2;2;
70436;PMS5003;57877;39.750;-104.894;2022-12-07T10:29:01;3;2;
70436;PMS5003;57877;39.750;-104.894;2022-12-07T10:31:25;2;1;
70436;PMS5003;57877;39.750;-104.894;2022-12-07T10:33:52;1;1;
70436;PMS5003;57877;39.750;-104.894;2022-12-07T10:36:17;0;0;
70436;PMS5003;57877;39.750;-104.894;2022-12-07T10:38:44;2;2;
70436;PMS5003;57877;39.750;-104.894;2022-12-07T10:41:06;1;1;
70436;PMS5003;57877;39.750;-104.894;2022-12-07T10:43:31;0;0;
70436;PMS5003;57877;39.750;-104.894;2022-12-07T10:48:22;1;1;
70436;PMS5003;57877;39.750;-104.894;2022-12-07T10:50:48;2;1;
70436;PMS5003;57877;39.750;-104.894;2022-12-07T10:55:40;3;3;
70436;PMS5003;57877;39.750;-104.894;2022-12-07T10:58:07;5;5;
70436;PMS5003;57877;39.750;-104.894;2022-12-07T11:00:28;9;8;
70436;PMS5003;57877;39.750;-104.894;2022-12-07T11:05:19;1;1;
70436;PMS5003;57877;39.750;-104.894;2022-12-07T11:07:44;1;1;
70436;PMS5003;57877;39.750;-104.894;2022-12-07T11:10:09;1;0;
70436;PMS5003;57877;39.750;-104.894;2022-12-07T11:12:36;0;0;
70436;PMS5003;57877;39.750;-104.894;2022-12-07T11:15:00;2;1;
70436;PMS5003;57877;39.750;-104.894;2022-12-07T11:17:24;2;0;
70436;PMS5003;57877;39.750;-104.894;2022-12-07T11:19:50;2;1;
70436;PMS5003;57877;39.750;-104.894;2022-12-07T11:22:14;2;1;
70436;PMS5003;57877;39.750;-104.894;2022-12-07T11:24:40;2;2;
70436;PMS5003;57877;39.750;-104.894;2022-12-07T11:27:09;0;0;
70436;PMS5003;57877;39.750;-104.894;2022-12-07T11:29:34;3;1;
70436;PMS5003;57877;39.750;-104.894;2022-12-07T11:31:56;1;1;
70436;PMS5003;57877;39.750;-104.894;2022-12-07T11:34:19;1;1;
70436;PMS5003;57877;39.750;-104.894;2022-12-07T11:36:44;0;0;
70436;PMS5003;57877;39.750;-104.894;2022-12-07T11:39:23;0;0;
70436;PMS5003;57877;39.750;-104.894;2022-12-07T11:41:34;0;0;
70436;PMS5003;57877;39.750;-104.894;2022-12-07T11:43:59;2;1;
70436;PMS5003;57877;39.750;-104.894;2022-12-07T11:46:29;2;2;
70436;PMS5003;57877;39.750;-104.894;2022-12-07T11:48:50;0;0;
70436;PMS5003;57877;39.750;-104.894;2022-12-07T11:51:14;2;2;
70436;PMS5003;57877;39.750;-104.894;2022-12-07T11:53:39;1;1;
70436;PMS5003;57877;39.750;-104.894;2022-12-07T11:56:07;1;1;
70436;PMS5003;57877;39.750;-104.894;2022-12-07T12:00:55;3;3;
70436;PMS5003;57877;39.750;-104.894;2022-12-07T12:03:22;2;2;
70436;PMS5003;57877;39.750;-104.894;2022-12-07T12:05:45;1;1;
70436;PMS5003;57877;39.750;-104.894;2022-12-07T12:08:12;0;0;
70436;PMS5003;57877;39.750;-104.894;2022-12-07T12:10:37;0;0;
70436;PMS5003;57877;39.750;-104.894;2022-12-07T12:13:08;1;1;
70436;PMS5003;57877;39.750;-104.894;2022-12-07T12:15:29;1;1;
70436;PMS5003;57877;39.750;-104.894;2022-12-07T12:20:18;0;0;
70436;PMS5003;57877;39.750;-104.894;2022-12-07T12:22:41;1;0;
70436;PMS5003;57877;39.750;-104.894;2022-12-07T12:25:07;1;0;
70436;PMS5003;57877;39.750;-104.894;2022-12-07T12:27:37;0;0;
70436;PMS5003;57877;39.750;-104.894;2022-12-07T12:29:57;1;0;
70436;PMS5003;57877;39.750;-104.894;2022-12-07T12:32:22;0;0;
70436;PMS5003;57877;39.750;-104.894;2022-12-07T12:39:37;0;0;
70436;PMS5003;57877;39.750;-104.894;2022-12-07T12:42:02;0;0;
70436;PMS5003;57877;39.750;-104.894;2022-12-07T12:46:52;0;0;
70436;PMS5003;57877;39.750;-104.894;2022-12-07T12:51:43;0;0;
70436;PMS5003;57877;39.750;-104.894;2022-12-07T12:54:11;0;0;
70436;PMS5003;57877;39.750;-104.894;2022-12-07T12:56:35;0;0;
70436;PMS5003;57877;39.750;-104.894;2022-12-07T13:08:39;0;0;
70436;PMS5003;57877;39.750;-104.894;2022-12-07T13:13:29;0;0;
70436;PMS5003;57877;39.750;-104.894;2022-12-07T13:15:54;0;0;
70436;PMS5003;57877;39.750;-104.894;2022-12-07T13:20:45;0;0;
70436;PMS5003;57877;39.750;-104.894;2022-12-07T13:23:09;1;1;
70436;PMS5003;57877;39.750;-104.894;2022-12-07T13:25:36;1;0;
70436;PMS5003;57877;39.750;-104.894;2022-12-07T13:28:01;0;0;
70436;PMS5003;57877;39.750;-104.894;2022-12-07T13:30:24;0;0;
70436;PMS5003;57877;39.750;-104.894;2022-12-07T13:32:51;0;0;
70436;PMS5003;57877;39.750;-104.894;2022-12-07T13:37:40;0;0;
70436;PMS5003;57877;39.750;-104.894;2022-12-07T13:42:31;0;0;
70436;PMS5003;57877;39.750;-104.894;2022-12-07T13:44:55;0;0;
70436;PMS5003;57877;39.750;-104.894;2022-12-07T13:47:30;0;0;
70436;PMS5003;57877;39.750;-104.894;2022-12-07T13:49:47;0;0;
70436;PMS5003;57877;39.750;-104.894;2022-12-07T13:57:00;0;0;
70436;PMS5003;57877;39.750;-104.894;2022-12-07T13:59:26;0;0;
70436;PMS5003;57877;39.750;-104.894;2022-12-07T14:01:51;0;0;
70436;PMS5003;57877;39.750;-104.894;2022-12-07T14:04:17;0;0;
70436;PMS5003;57877;39.750;-104.894;2022-12-07T14:11:31;0;0;
70436;PMS5003;57877;39.750;-104.894;2022-12-07T14:13:57;0;0;
70436;PMS5003;57877;39.750;-104.894;2022-12-07T14:16:24;0;0;
70436;PMS5003;57877;39.750;-104.894;2022-12-07T14:18:47;0;0;
70436;PMS5003;57877;39.750;-104.894;2022-12-07T14:21:14;0;0;
70436;PMS5003;57877;39.750;-104.894;2022-12-07T14:23:38;0;0;
70436;PMS5003;57877;39.750;-104.894;2022-12-07T14:26:06;0;0;
70436;PMS5003;57877;39.750;-104.894;2022-12-07T14:28:28;0;0;
70436;PMS5003;57877;39.750;-104.894;2022-12-07T14:30:52;0;0;
70436;PMS5003;57877;39.750;-104.894;2022-12-07T14:33:17;0;0;
70436;PMS5003;57877;39.750;-104.894;2022-12-07T14:35:43;0;0;
70436;PMS5003;57877;39.750;-104.894;2022-12-07T14:38:08;0;0;
70436;PMS5003;57877;39.750;-104.894;2022-12-07T14:40:33;0;0;
70436;PMS5003;57877;39.750;-104.894;2022-12-07T14:42:59;0;0;
70436;PMS5003;57877;39.750;-104.894;2022-12-07T14:45:23;0;0;
70436;PMS5003;57877;39.750;-104.894;2022-12-07T14:47:48;0;0;
70436;PMS5003;57877;39.750;-104.894;2022-12-07T14:50:14;0;0;
70436;PMS5003;57877;39.750;-104.894;2022-12-07T14:52:38;0;0;
70436;PMS5003;57877;39.750;-104.894;2022-12-07T14:55:04;0;0;
70436;PMS5003;57877;39.750;-104.894;2022-12-07T14:57:29;2;1;
70436;PMS5003;57877;39.750;-104.894;2022-12-07T14:59:54;0;0;
70436;PMS5003;57877;39.750;-104.894;2022-12-07T15:02:19;3;2;
70436;PMS5003;57877;39.750;-104.894;2022-12-07T15:04:44;0;0;
70436;PMS5003;57877;39.750;-104.894;2022-12-07T15:07:10;0;0;
70436;PMS5003;57877;39.750;-104.894;2022-12-07T15:09:34;0;0;
70436;PMS5003;57877;39.750;-104.894;2022-12-07T15:11:59;0;0;
70436;PMS5003;57877;39.750;-104.894;2022-12-07T15:14:24;0;0;
70436;PMS5003;57877;39.750;-104.894;2022-12-07T15:16:50;0;0;
70436;PMS5003;57877;39.750;-104.894;2022-12-07T15:19:15;0;0;
70436;PMS5003;57877;39.750;-104.894;2022-12-07T15:21:40;0;0;
70436;PMS5003;57877;39.750;-104.894;2022-12-07T15:24:05;0;0;
70436;PMS5003;57877;39.750;-104.894;2022-12-07T15:26:30;0;0;
70436;PMS5003;57877;39.750;-104.894;2022-12-07T15:28:55;0;0;
70436;PMS5003;57877;39.750;-104.894;2022-12-07T15:31:20;0;0;
70436;PMS5003;57877;39.750;-104.894;2022-12-07T15:33:45;0;0;
70436;PMS5003;57877;39.750;-104.894;2022-12-07T15:36:15;0;0;
70436;PMS5003;57877;39.750;-104.894;2022-12-07T15:38:36;0;0;
70436;PMS5003;57877;39.750;-104.894;2022-12-07T15:41:01;0;0;
70436;PMS5003;57877;39.750;-104.894;2022-12-07T15:43:26;0;0;
70436;PMS5003;57877;39.750;-104.894;2022-12-07T15:45:51;0;0;
70436;PMS5003;57877;39.750;-104.894;2022-12-07T15:48:16;0;0;
70436;PMS5003;57877;39.750;-104.894;2022-12-07T15:50:41;0;0;
70436;PMS5003;57877;39.750;-104.894;2022-12-07T15:53:06;0;0;
70436;PMS5003;57877;39.750;-104.894;2022-12-07T15:55:31;0;0;
70436;PMS5003;57877;39.750;-104.894;2022-12-07T15:57:56;0;0;
70436;PMS5003;57877;39.750;-104.894;2022-12-07T16:00:21;0;0;
70436;PMS5003;57877;39.750;-104.894;2022-12-07T16:02:46;0;0;
70436;PMS5003;57877;39.750;-104.894;2022-12-07T16:05:11;0;0;
70436;PMS5003;57877;39.750;-104.894;2022-12-07T16:07:36;1;1;
70436;PMS5003;57877;39.750;-104.894;2022-12-07T16:10:02;0;0;
70436;PMS5003;57877;39.750;-104.894;2022-12-07T16:12:27;2;0;
70436;PMS5003;57877;39.750;-104.894;2022-12-07T16:14:52;0;0;
70436;PMS5003;57877;39.750;-104.894;2022-12-07T16:17:17;1;1;
70436;PMS5003;57877;39.750;-104.894;2022-12-07T16:22:07;0;0;
70436;PMS5003;57877;39.750;-104.894;2022-12-07T16:24:32;0;0;
70436;PMS5003;57877;39.750;-104.894;2022-12-07T16:26:57;0;0;
70436;PMS5003;57877;39.750;-104.894;2022-12-07T16:29:22;0;0;
70436;PMS5003;57877;39.750;-104.894;2022-12-07T16:31:47;0;0;
70436;PMS5003;57877;39.750;-104.894;2022-12-07T16:34:12;0;0;
70436;PMS5003;57877;39.750;-104.894;2022-12-07T16:36:38;0;0;
70436;PMS5003;57877;39.750;-104.894;2022-12-07T16:39:04;0;0;
70436;PMS5003;57877;39.750;-104.894;2022-12-07T16:41:28;0;0;
70436;PMS5003;57877;39.750;-104.894;2022-12-07T16:43:54;0;0;
70436;PMS5003;57877;39.750;-104.894;2022-12-07T16:46:19;0;0;
70436;PMS5003;57877;39.750;-104.894;2022-12-07T16:48:44;1;1;
70436;PMS5003;57877;39.750;-104.894;2022-12-07T16:51:11;0;0;